Time;durP1;ratioP1;P1;durP2;ratioP2;P2;SDS_P1;SDS_P2;PMS_P1;PMS_P2;Temp;Humidity;BMP_temperature;BMP_pressure;BME280_temperature;BME280_humidity;BME280_pressure;Samples;Min_cycle;Max_cycle;Signal;HPM_P1;HPM_P2
2024/03/06 00:00:34;;;;;;;35.75;16.77;;;;;;;;;;5060246;28;20421;-66
2024/03/06 00:03:00;;;;;;;39.60;16.50;;;;;;;;;;5096668;28;20413;-66
2024/03/06 00:05:26;;;;;;;34.20;15.13;;;;;;;;;;5061662;28;20048;-67
2024/03/06 00:07:52;;;;;;;35.90;16.10;;;;;;;;;;5066812;28;20426;-66
2024/03/06 00:10:18;;;;;;;34.22;15.35;;;;;;;;;;5069229;28;20051;-67
2024/03/06 00:12:44;;;;;;;33.75;15.13;;;;;;;;;;5066977;28;20041;-67
2024/03/06 00:15:10;;;;;;;30.48;14.40;;;;;;;;;;5068518;28;20051;-67
2024/03/06 00:17:36;;;;;;;31.20;14.98;;;;;;;;;;5066126;28;20049;-67
2024/03/06 00:20:05;;;;;;;30.48;14.88;;;;;;;;;;5070356;28;20494;-67
2024/03/06 00:22:31;;;;;;;35.03;16.13;;;;;;;;;;5069244;28;20062;-67
2024/03/06 00:24:57;;;;;;;28.83;14.30;;;;;;;;;;5069103;28;20481;-67
2024/03/06 00:27:23;;;;;;;29.20;14.82;;;;;;;;;;5069370;28;20060;-66
2024/03/06 00:29:49;;;;;;;31.67;14.93;;;;;;;;;;5068964;28;20052;-67
2024/03/06 00:32:16;;;;;;;32.38;15.40;;;;;;;;;;5066650;28;20033;-66
2024/03/06 00:34:42;;;;;;;30.13;14.48;;;;;;;;;;5067187;28;20047;-66
2024/03/06 00:37:08;;;;;;;29.70;14.15;;;;;;;;;;5070612;28;20453;-66
2024/03/06 00:39:35;;;;;;;32.75;15.85;;;;;;;;;;5070471;28;20052;-67
2024/03/06 00:42:01;;;;;;;34.70;15.93;;;;;;;;;;5064435;28;20037;-66
2024/03/06 00:44:27;;;;;;;28.95;14.85;;;;;;;;;;5067323;28;20029;-66
2024/03/06 00:46:53;;;;;;;31.00;14.88;;;;;;;;;;5067743;28;20032;-66
2024/03/06 00:49:19;;;;;;;29.15;15.80;;;;;;;;;;5062887;28;20044;-66
2024/03/06 00:51:45;;;;;;;28.38;14.82;;;;;;;;;;5058619;28;20049;-66
2024/03/06 00:54:11;;;;;;;24.90;13.45;;;;;;;;;;5070052;28;20036;-65
2024/03/06 00:56:38;;;;;;;24.80;12.95;;;;;;;;;;5062097;28;20041;-65
2024/03/06 00:59:05;;;;;;;26.27;11.85;;;;;;;;;;5068897;28;20044;-65
2024/03/06 01:01:31;;;;;;;21.85;12.00;;;;;;;;;;5058285;28;20063;-66
2024/03/06 01:03:57;;;;;;;19.95;10.75;;;;;;;;;;5071226;28;20032;-66
2024/03/06 01:06:23;;;;;;;21.00;10.75;;;;;;;;;;5070548;28;20041;-65
2024/03/06 01:08:49;;;;;;;23.92;11.10;;;;;;;;;;5071137;28;20033;-65
2024/03/06 01:11:15;;;;;;;23.88;11.63;;;;;;;;;;5069282;28;20040;-65
2024/03/06 01:13:41;;;;;;;23.38;12.35;;;;;;;;;;5059158;28;20406;-65
2024/03/06 01:16:08;;;;;;;24.33;12.13;;;;;;;;;;5070931;28;20497;-65
2024/03/06 01:18:34;;;;;;;24.20;12.07;;;;;;;;;;5061306;28;20040;-65
2024/03/06 01:21:00;;;;;;;20.55;11.93;;;;;;;;;;5069205;28;20032;-65
2024/03/06 01:23:26;;;;;;;24.38;11.95;;;;;;;;;;5079148;28;20067;-65
2024/03/06 01:25:52;;;;;;;23.02;11.93;;;;;;;;;;5066937;28;20036;-65
2024/03/06 01:28:18;;;;;;;22.48;10.60;;;;;;;;;;5071276;28;20036;-65
2024/03/06 01:30:44;;;;;;;22.05;10.68;;;;;;;;;;5068757;28;20049;-65
2024/03/06 01:33:10;;;;;;;24.05;10.27;;;;;;;;;;5062320;28;20044;-65
2024/03/06 01:35:36;;;;;;;22.08;10.90;;;;;;;;;;5080238;28;20046;-65
2024/03/06 01:38:02;;;;;;;21.10;10.35;;;;;;;;;;5064867;28;20036;-65
2024/03/06 01:40:29;;;;;;;21.08;10.13;;;;;;;;;;5059359;28;20048;-65
2024/03/06 01:42:56;;;;;;;18.67;10.30;;;;;;;;;;5060593;28;20040;-65
2024/03/06 01:45:22;;;;;;;18.63;8.93;;;;;;;;;;5062785;28;20056;-65
2024/03/06 01:47:49;;;;;;;18.00;8.75;;;;;;;;;;5065076;28;20049;-65
2024/03/06 01:50:16;;;;;;;17.85;8.80;;;;;;;;;;5068496;28;20048;-65
2024/03/06 01:52:44;;;;;;;17.30;8.40;;;;;;;;;;5063863;28;20040;-65
2024/03/06 01:55:11;;;;;;;16.83;8.13;;;;;;;;;;5062979;28;20391;-65
2024/03/06 01:57:39;;;;;;;17.80;8.38;;;;;;;;;;5058390;28;20043;-65
2024/03/06 02:00:13;;;;;;;15.80;7.88;;;;;;;;;;5061220;28;20036;-65
2024/03/06 02:02:41;;;;;;;16.98;7.90;;;;;;;;;;5070991;28;20632;-65
2024/03/06 02:05:08;;;;;;;14.35;7.05;;;;;;;;;;5069988;28;20044;-64
2024/03/06 02:07:38;;;;;;;16.58;7.78;;;;;;;;;;5058813;28;20053;-65
2024/03/06 02:10:04;;;;;;;15.48;7.28;;;;;;;;;;5068956;28;20409;-66
2024/03/06 02:12:30;;;;;;;12.02;6.78;;;;;;;;;;5065730;28;20051;-65
2024/03/06 02:14:57;;;;;;;12.57;6.22;;;;;;;;;;5062575;28;20048;-65
2024/03/06 02:17:25;;;;;;;14.00;6.97;;;;;;;;;;5063610;28;20390;-65
2024/03/06 02:19:51;;;;;;;16.02;6.68;;;;;;;;;;5060679;28;20049;-65
2024/03/06 02:22:17;;;;;;;12.65;7.18;;;;;;;;;;5075168;28;20039;-64
2024/03/06 02:24:47;;;;;;;13.35;6.18;;;;;;;;;;5075989;28;20040;-64
2024/03/06 02:27:14;;;;;;;11.55;5.97;;;;;;;;;;5068296;28;20047;-65
2024/03/06 02:29:40;;;;;;;15.35;6.60;;;;;;;;;;5070276;28;20040;-65
2024/03/06 02:32:06;;;;;;;12.05;5.75;;;;;;;;;;5056967;28;20025;-65
2024/03/06 02:34:32;;;;;;;12.77;6.47;;;;;;;;;;5063356;28;20044;-65
2024/03/06 02:36:58;;;;;;;11.95;5.90;;;;;;;;;;5056965;28;20045;-65
2024/03/06 02:39:24;;;;;;;13.93;6.30;;;;;;;;;;5067159;28;20052;-65
2024/03/06 02:41:50;;;;;;;15.25;7.07;;;;;;;;;;5072308;28;20036;-64
2024/03/06 02:44:17;;;;;;;12.27;6.22;;;;;;;;;;5058254;28;20052;-65
2024/03/06 02:46:48;;;;;;;16.75;6.65;;;;;;;;;;5056762;28;20028;-65
2024/03/06 02:49:15;;;;;;;16.33;6.47;;;;;;;;;;5071305;28;20386;-65
2024/03/06 02:51:41;;;;;;;16.83;6.63;;;;;;;;;;5063320;28;20512;-66
2024/03/06 02:54:08;;;;;;;14.10;6.88;;;;;;;;;;5066125;28;20551;-65
2024/03/06 02:56:34;;;;;;;16.55;6.68;;;;;;;;;;5062732;28;20469;-65
2024/03/06 02:59:02;;;;;;;13.48;6.35;;;;;;;;;;5064333;28;20040;-65
2024/03/06 03:01:29;;;;;;;12.10;6.50;;;;;;;;;;5073191;28;20028;-65
2024/03/06 03:03:56;;;;;;;14.93;6.63;;;;;;;;;;5074388;28;20048;-65
2024/03/06 03:06:26;;;;;;;12.98;6.18;;;;;;;;;;5074269;28;20045;-64
2024/03/06 03:08:52;;;;;;;13.55;7.13;;;;;;;;;;5073550;28;20505;-65
2024/03/06 03:11:18;;;;;;;13.52;6.70;;;;;;;;;;5068979;28;20036;-67
2024/03/06 03:13:44;;;;;;;15.07;6.75;;;;;;;;;;5068364;28;20051;-66
2024/03/06 03:16:17;;;;;;;12.00;6.60;;;;;;;;;;5061676;28;20053;-65
2024/03/06 03:18:44;;;;;;;15.05;7.13;;;;;;;;;;5061963;28;20039;-65
2024/03/06 03:21:10;;;;;;;16.50;6.90;;;;;;;;;;5064085;28;20025;-65
2024/03/06 03:23:36;;;;;;;13.88;6.20;;;;;;;;;;5075728;28;20535;-65
2024/03/06 03:26:03;;;;;;;12.25;6.38;;;;;;;;;;5060949;28;20486;-66
2024/03/06 03:28:29;;;;;;;13.00;6.53;;;;;;;;;;5071876;28;20048;-66
2024/03/06 03:30:56;;;;;;;12.18;6.25;;;;;;;;;;5069464;28;20052;-66
2024/03/06 03:33:22;;;;;;;13.73;6.57;;;;;;;;;;5066729;28;20048;-65
2024/03/06 03:35:48;;;;;;;16.65;6.70;;;;;;;;;;5062123;28;20044;-65
2024/03/06 03:38:14;;;;;;;13.30;6.30;;;;;;;;;;5071929;28;20106;-65
2024/03/06 03:40:40;;;;;;;16.42;6.45;;;;;;;;;;5063394;28;20425;-66
2024/03/06 03:43:06;;;;;;;17.92;7.70;;;;;;;;;;5072795;28;20460;-65
2024/03/06 03:45:33;;;;;;;13.57;7.05;;;;;;;;;;5069879;28;20029;-66
2024/03/06 03:48:02;;;;;;;15.20;7.70;;;;;;;;;;5054082;28;20052;-67
2024/03/06 03:50:29;;;;;;;15.77;7.40;;;;;;;;;;5067382;28;20411;-66
2024/03/06 03:52:57;;;;;;;19.88;9.05;;;;;;;;;;5060612;28;20048;-65
2024/03/06 03:55:27;;;;;;;17.63;8.60;;;;;;;;;;5059425;28;20119;-65
2024/03/06 03:57:53;;;;;;;19.27;9.77;;;;;;;;;;5063188;28;20466;-66
2024/03/06 04:00:19;;;;;;;15.27;7.88;;;;;;;;;;5060974;28;20044;-65
2024/03/06 04:02:45;;;;;;;15.80;8.30;;;;;;;;;;5066871;28;20147;-66
2024/03/06 04:05:12;;;;;;;19.70;9.95;;;;;;;;;;5056384;28;20055;-65
2024/03/06 04:07:38;;;;;;;16.23;8.38;;;;;;;;;;5065845;28;20029;-66
2024/03/06 04:10:05;;;;;;;19.77;8.98;;;;;;;;;;5065014;28;20493;-65
2024/03/06 04:12:31;;;;;;;19.25;8.18;;;;;;;;;;5065133;28;20028;-66
2024/03/06 04:14:58;;;;;;;16.77;8.13;;;;;;;;;;5065730;28;20055;-65
2024/03/06 04:17:25;;;;;;;17.13;8.48;;;;;;;;;;5055917;28;20052;-66
2024/03/06 04:19:53;;;;;;;16.48;7.45;;;;;;;;;;5061084;28;20433;-66
2024/03/06 04:22:19;;;;;;;19.83;8.57;;;;;;;;;;5069205;28;20040;-66
2024/03/06 04:24:45;;;;;;;23.55;9.30;;;;;;;;;;5077830;28;20032;-66
2024/03/06 04:27:11;;;;;;;17.38;7.97;;;;;;;;;;5082868;28;20034;-66
2024/03/06 04:29:37;;;;;;;19.17;8.35;;;;;;;;;;5078078;28;20389;-66
2024/03/06 04:32:04;;;;;;;22.63;8.85;;;;;;;;;;5070727;28;20037;-66
2024/03/06 04:34:30;;;;;;;19.50;8.63;;;;;;;;;;5064440;28;20041;-68
2024/03/06 04:36:56;;;;;;;24.58;10.05;;;;;;;;;;5059694;28;20032;-68
2024/03/06 04:39:22;;;;;;;23.65;10.55;;;;;;;;;;5060246;28;20072;-68
2024/03/06 04:41:49;;;;;;;20.25;9.10;;;;;;;;;;5060356;28;20052;-68
2024/03/06 04:44:15;;;;;;;20.30;9.35;;;;;;;;;;5052841;28;20405;-68
2024/03/06 04:46:41;;;;;;;20.98;9.57;;;;;;;;;;5054454;28;20041;-67
2024/03/06 04:49:07;;;;;;;20.77;9.85;;;;;;;;;;5067836;28;20044;-66
2024/03/06 04:51:34;;;;;;;21.83;10.10;;;;;;;;;;5063687;28;20041;-66
2024/03/06 04:54:00;;;;;;;23.65;10.75;;;;;;;;;;5070111;28;20421;-67
2024/03/06 04:56:26;;;;;;;24.88;10.57;;;;;;;;;;5061896;28;20036;-67
2024/03/06 04:58:52;;;;;;;25.52;11.75;;;;;;;;;;5064408;28;20036;-67
2024/03/06 05:01:18;;;;;;;30.17;11.45;;;;;;;;;;5060580;28;20033;-65
2024/03/06 05:03:44;;;;;;;26.95;12.10;;;;;;;;;;5061756;28;20041;-67
2024/03/06 05:06:11;;;;;;;27.20;13.10;;;;;;;;;;5064851;28;20032;-67
2024/03/06 05:08:37;;;;;;;30.45;14.02;;;;;;;;;;5060487;28;20043;-67
2024/03/06 05:11:04;;;;;;;33.97;13.48;;;;;;;;;;5068704;28;20044;-66
2024/03/06 05:13:30;;;;;;;36.55;13.10;;;;;;;;;;5065571;28;20044;-67
2024/03/06 05:15:56;;;;;;;29.25;12.88;;;;;;;;;;5068211;28;20433;-66
2024/03/06 05:18:22;;;;;;;32.83;13.48;;;;;;;;;;5065871;28;20041;-66
2024/03/06 05:20:48;;;;;;;36.28;13.75;;;;;;;;;;5070612;28;20052;-66
2024/03/06 05:23:14;;;;;;;26.98;12.30;;;;;;;;;;5068435;28;20040;-67
2024/03/06 05:25:41;;;;;;;33.28;14.23;;;;;;;;;;5064166;28;20036;-67
2024/03/06 05:28:07;;;;;;;40.15;14.88;;;;;;;;;;5064594;28;20040;-66
2024/03/06 05:30:33;;;;;;;32.17;14.32;;;;;;;;;;5058861;28;20409;-65
2024/03/06 05:32:59;;;;;;;29.77;13.95;;;;;;;;;;5059101;28;20040;-66
2024/03/06 05:35:25;;;;;;;27.33;13.95;;;;;;;;;;5066627;28;20041;-66
2024/03/06 05:37:51;;;;;;;28.92;13.98;;;;;;;;;;5062471;28;20040;-67
2024/03/06 05:40:17;;;;;;;31.17;14.55;;;;;;;;;;5069128;28;20086;-68
2024/03/06 05:42:43;;;;;;;29.90;14.30;;;;;;;;;;5067160;28;20396;-68
2024/03/06 05:45:10;;;;;;;32.70;14.85;;;;;;;;;;5054377;28;20083;-68
2024/03/06 05:47:38;;;;;;;32.50;14.35;;;;;;;;;;5063935;28;20405;-68
2024/03/06 05:50:07;;;;;;;32.30;14.50;;;;;;;;;;5084704;28;20454;-68
2024/03/06 05:52:34;;;;;;;34.58;13.82;;;;;;;;;;5065093;28;20049;-68
2024/03/06 05:55:00;;;;;;;32.95;13.63;;;;;;;;;;5060719;28;20037;-68
2024/03/06 05:57:26;;;;;;;33.92;14.48;;;;;;;;;;5053344;28;20037;-68
2024/03/06 05:59:52;;;;;;;29.17;13.80;;;;;;;;;;5052710;28;20413;-67
2024/03/06 06:02:19;;;;;;;34.88;14.15;;;;;;;;;;5068266;28;20071;-68
2024/03/06 06:04:46;;;;;;;30.42;8.05;;;;;;;;;;5062791;28;20371;-64
2024/03/06 06:07:12;;;;;;;30.38;13.50;;;;;;;;;;5055785;28;20505;-65
2024/03/06 06:09:38;;;;;;;34.55;15.15;;;;;;;;;;5060006;28;20036;-64
2024/03/06 06:12:04;;;;;;;31.55;14.38;;;;;;;;;;5055460;28;20111;-63
2024/03/06 06:14:30;;;;;;;28.20;13.75;;;;;;;;;;5063087;28;20457;-62
2024/03/06 06:16:57;;;;;;;30.50;14.80;;;;;;;;;;5070485;28;20032;-64
2024/03/06 06:19:23;;;;;;;30.25;14.82;;;;;;;;;;5070088;28;20053;-62
2024/03/06 06:21:49;;;;;;;31.95;14.65;;;;;;;;;;5076436;28;20442;-62
2024/03/06 06:24:15;;;;;;;32.00;14.20;;;;;;;;;;5081426;28;20029;-64
2024/03/06 06:26:42;;;;;;;31.63;14.50;;;;;;;;;;5075584;28;20413;-64
2024/03/06 06:29:08;;;;;;;34.00;13.77;;;;;;;;;;5076687;28;20059;-62
2024/03/06 06:31:34;;;;;;;34.33;14.55;;;;;;;;;;5083185;28;20028;-63
2024/03/06 06:34:00;;;;;;;34.60;14.88;;;;;;;;;;5075564;28;20520;-62
2024/03/06 06:36:27;;;;;;;31.15;14.73;;;;;;;;;;5074895;28;20047;-62
2024/03/06 06:38:53;;;;;;;31.00;15.23;;;;;;;;;;5075896;28;20543;-62
2024/03/06 06:41:19;;;;;;;36.30;15.02;;;;;;;;;;5068199;28;20052;-63
2024/03/06 06:43:52;;;;;;;37.42;16.40;;;;;;;;;;5068464;28;20040;-62
2024/03/06 06:46:18;;;;;;;37.75;15.40;;;;;;;;;;5075860;28;20067;-63
2024/03/06 06:48:44;;;;;;;59.33;19.52;;;;;;;;;;5066277;28;20390;-63
2024/03/06 06:51:10;;;;;;;96.15;27.85;;;;;;;;;;5074183;28;20520;-63
2024/03/06 06:53:39;;;;;;;62.58;20.15;;;;;;;;;;5073705;28;20048;-63
2024/03/06 06:56:06;;;;;;;40.95;17.08;;;;;;;;;;5074743;28;20063;-62
2024/03/06 06:58:32;;;;;;;37.88;15.52;;;;;;;;;;5071698;28;20036;-62
2024/03/06 07:00:58;;;;;;;31.73;13.93;;;;;;;;;;5074926;28;20044;-62
2024/03/06 07:03:29;;;;;;;36.78;14.60;;;;;;;;;;5074271;28;20059;-62
2024/03/06 07:05:57;;;;;;;35.30;14.63;;;;;;;;;;5073096;28;20029;-62
2024/03/06 07:08:23;;;;;;;35.67;16.38;;;;;;;;;;5072895;28;20040;-62
2024/03/06 07:10:50;;;;;;;32.58;16.02;;;;;;;;;;5076119;28;20500;-61
2024/03/06 07:13:17;;;;;;;34.00;14.90;;;;;;;;;;5069419;28;20498;-62
2024/03/06 07:15:43;;;;;;;35.10;13.68;;;;;;;;;;5074086;28;20047;-62
2024/03/06 07:18:10;;;;;;;38.47;14.88;;;;;;;;;;5062980;28;20063;-62
2024/03/06 07:20:36;;;;;;;33.95;14.32;;;;;;;;;;5072895;28;20058;-61
2024/03/06 07:23:02;;;;;;;31.73;14.30;;;;;;;;;;5070806;28;20946;-62
2024/03/06 07:25:28;;;;;;;32.22;13.82;;;;;;;;;;5063070;28;20036;-62
2024/03/06 07:27:54;;;;;;;30.83;14.02;;;;;;;;;;5059891;28;20048;-62
2024/03/06 07:30:21;;;;;;;30.23;14.32;;;;;;;;;;5059807;28;20048;-62
2024/03/06 07:32:48;;;;;;;33.03;13.88;;;;;;;;;;5071589;28;20044;-62
2024/03/06 07:35:14;;;;;;;34.45;13.38;;;;;;;;;;5069443;28;20048;-61
2024/03/06 07:37:40;;;;;;;32.20;13.82;;;;;;;;;;5067755;28;20036;-62
2024/03/06 07:40:09;;;;;;;30.80;14.77;;;;;;;;;;5065822;28;20044;-63
2024/03/06 07:42:35;;;;;;;37.43;14.87;;;;;;;;;;5068778;28;20048;-63
2024/03/06 07:45:02;;;;;;;31.45;13.95;;;;;;;;;;5070601;28;20291;-63
2024/03/06 07:47:28;;;;;;;32.47;14.68;;;;;;;;;;5058053;28;20055;-62
2024/03/06 07:49:54;;;;;;;33.47;14.02;;;;;;;;;;5064346;28;20032;-63
2024/03/06 07:52:20;;;;;;;31.50;14.25;;;;;;;;;;5068408;28;20055;-62
2024/03/06 07:54:49;;;;;;;31.52;13.82;;;;;;;;;;5066928;28;20052;-63
2024/03/06 07:57:15;;;;;;;38.07;15.23;;;;;;;;;;5063979;28;20036;-63
2024/03/06 07:59:41;;;;;;;35.50;15.70;;;;;;;;;;5066472;28;20409;-63
2024/03/06 08:02:07;;;;;;;39.40;16.55;;;;;;;;;;5069153;28;20078;-63
2024/03/06 08:04:35;;;;;;;35.70;14.90;;;;;;;;;;5064830;28;20401;-63
2024/03/06 08:07:01;;;;;;;34.38;14.88;;;;;;;;;;5070075;28;20051;-63
2024/03/06 08:09:28;;;;;;;36.95;15.27;;;;;;;;;;5062875;28;20043;-63
2024/03/06 08:11:54;;;;;;;34.05;15.25;;;;;;;;;;5069779;28;20040;-63
2024/03/06 08:14:20;;;;;;;36.78;14.98;;;;;;;;;;5065452;28;20044;-63
2024/03/06 08:16:47;;;;;;;36.67;14.60;;;;;;;;;;5060665;28;20044;-63
2024/03/06 08:19:13;;;;;;;37.33;15.27;;;;;;;;;;5060988;28;20030;-63
2024/03/06 08:21:39;;;;;;;36.55;15.00;;;;;;;;;;5069106;28;20386;-61
2024/03/06 08:24:05;;;;;;;37.92;16.20;;;;;;;;;;5064184;28;20029;-61
2024/03/06 08:26:31;;;;;;;40.17;16.65;;;;;;;;;;5058439;28;20438;-61
2024/03/06 08:28:58;;;;;;;40.83;15.30;;;;;;;;;;5060032;28;20045;-62
2024/03/06 08:31:25;;;;;;;43.60;17.10;;;;;;;;;;5067998;28;20055;-61
2024/03/06 08:33:52;;;;;;;40.72;16.95;;;;;;;;;;5066186;28;20494;-62
2024/03/06 08:36:19;;;;;;;39.05;17.10;;;;;;;;;;5064957;28;20883;-63
2024/03/06 08:38:45;;;;;;;43.13;18.67;;;;;;;;;;5068288;28;20032;-62
2024/03/06 08:41:11;;;;;;;47.15;18.05;;;;;;;;;;5065050;28;20413;-63
2024/03/06 08:43:37;;;;;;;44.80;17.92;;;;;;;;;;5069599;28;20036;-62
2024/03/06 08:46:03;;;;;;;47.08;17.95;;;;;;;;;;5057417;28;20068;-63
2024/03/06 08:48:30;;;;;;;43.78;19.25;;;;;;;;;;5061162;28;20033;-63
2024/03/06 08:50:56;;;;;;;42.67;18.88;;;;;;;;;;5063147;28;20573;-62
2024/03/06 08:53:22;;;;;;;46.88;17.92;;;;;;;;;;5062210;28;20504;-62
2024/03/06 08:55:49;;;;;;;49.95;19.63;;;;;;;;;;5067909;28;20039;-62
2024/03/06 08:58:15;;;;;;;43.85;18.65;;;;;;;;;;5066668;28;20056;-62
2024/03/06 09:00:41;;;;;;;46.08;18.38;;;;;;;;;;5068395;28;20406;-62
2024/03/06 09:03:07;;;;;;;46.40;18.30;;;;;;;;;;5065064;28;20028;-63
2024/03/06 09:05:33;;;;;;;57.88;22.23;;;;;;;;;;5071633;28;20055;-62
2024/03/06 09:08:00;;;;;;;51.40;21.10;;;;;;;;;;5068444;28;20056;-62
2024/03/06 09:10:26;;;;;;;51.95;21.58;;;;;;;;;;5061692;28;20040;-63
2024/03/06 09:12:52;;;;;;;51.65;21.90;;;;;;;;;;5068239;28;20393;-62
2024/03/06 09:15:18;;;;;;;52.38;23.55;;;;;;;;;;5062131;28;20036;-62
2024/03/06 09:17:47;;;;;;;47.83;20.23;;;;;;;;;;5068328;28;20084;-62
2024/03/06 09:20:13;;;;;;;53.72;22.00;;;;;;;;;;5069432;28;20059;-62
2024/03/06 09:22:40;;;;;;;54.25;20.77;;;;;;;;;;5067569;28;20065;-61
2024/03/06 09:25:07;;;;;;;58.83;22.27;;;;;;;;;;5061629;28;20039;-63
2024/03/06 09:27:33;;;;;;;53.47;21.40;;;;;;;;;;5068574;28;20029;-62
2024/03/06 09:30:00;;;;;;;53.35;19.98;;;;;;;;;;5059522;28;20765;-62
2024/03/06 09:32:26;;;;;;;52.25;20.75;;;;;;;;;;5061564;28;20056;-62
2024/03/06 09:34:52;;;;;;;52.08;19.85;;;;;;;;;;5053523;28;20040;-62
2024/03/06 09:37:19;;;;;;;51.90;20.73;;;;;;;;;;5057773;28;20471;-62
2024/03/06 09:39:48;;;;;;;57.67;21.58;;;;;;;;;;5063006;28;20055;-63
2024/03/06 09:42:15;;;;;;;57.83;21.90;;;;;;;;;;5058417;28;20386;-62
2024/03/06 09:44:41;;;;;;;56.90;21.40;;;;;;;;;;5065778;28;20305;-62
2024/03/06 09:47:16;;;;;;;52.08;20.67;;;;;;;;;;5061124;28;20532;-62
2024/03/06 09:49:43;;;;;;;56.40;21.33;;;;;;;;;;5059632;28;20405;-62
2024/03/06 09:52:10;;;;;;;57.15;23.10;;;;;;;;;;5066434;28;20478;-64
2024/03/06 09:54:39;;;;;;;58.28;22.23;;;;;;;;;;5083598;28;20494;-63
2024/03/06 09:57:05;;;;;;;62.63;24.17;;;;;;;;;;5067244;28;20032;-62
2024/03/06 09:59:31;;;;;;;61.53;22.42;;;;;;;;;;5062808;28;20108;-63
2024/03/06 10:02:02;;;;;;;57.63;22.95;;;;;;;;;;5058942;28;20040;-64
2024/03/06 10:04:29;;;;;;;56.95;22.83;;;;;;;;;;5056508;28;20048;-61
2024/03/06 10:06:57;;;;;;;59.00;22.77;;;;;;;;;;5060371;28;20358;-62
2024/03/06 10:09:24;;;;;;;57.70;22.55;;;;;;;;;;5066194;28;20140;-61
2024/03/06 10:11:52;;;;;;;67.35;23.35;;;;;;;;;;5063177;28;20549;-62
2024/03/06 10:14:19;;;;;;;72.32;24.92;;;;;;;;;;5062842;28;20072;-61
2024/03/06 10:17:18;;;;;;;61.97;22.88;;;;;;;;;;5066002;28;20052;-62
2024/03/06 10:19:50;;;;;;;69.18;23.02;;;;;;;;;;5066743;28;20115;-62
2024/03/06 10:22:17;;;;;;;67.15;24.70;;;;;;;;;;5059181;28;20045;-62
2024/03/06 10:24:43;;;;;;;66.47;24.58;;;;;;;;;;5074706;28;20051;-62
2024/03/06 10:27:16;;;;;;;60.70;23.20;;;;;;;;;;5067323;28;20044;-62
2024/03/06 10:29:42;;;;;;;61.22;22.75;;;;;;;;;;5075190;28;20044;-62
2024/03/06 10:32:10;;;;;;;61.22;22.30;;;;;;;;;;5056548;28;20040;-64
2024/03/06 10:34:37;;;;;;;56.22;21.08;;;;;;;;;;5063478;28;20158;-64
2024/03/06 10:37:06;;;;;;;57.15;20.45;;;;;;;;;;5055173;28;20366;-63
2024/03/06 10:39:41;;;;;;;52.20;20.80;;;;;;;;;;5051654;28;20040;-64
2024/03/06 10:42:08;;;;;;;56.70;21.35;;;;;;;;;;5062321;28;20040;-63
2024/03/06 10:44:35;;;;;;;60.03;22.65;;;;;;;;;;5060799;28;20053;-64
2024/03/06 10:47:03;;;;;;;58.10;21.90;;;;;;;;;;5055953;28;20389;-63
2024/03/06 10:49:31;;;;;;;61.40;22.73;;;;;;;;;;5058186;28;20044;-63
2024/03/06 10:52:06;;;;;;;58.72;20.55;;;;;;;;;;5059955;28;20036;-64
2024/03/06 10:54:38;;;;;;;55.92;20.13;;;;;;;;;;5061395;28;20708;-63
2024/03/06 10:57:05;;;;;;;55.50;20.33;;;;;;;;;;5066712;28;20036;-63
2024/03/06 10:59:31;;;;;;;51.08;19.00;;;;;;;;;;5062511;28;20044;-63
2024/03/06 11:02:02;;;;;;;62.60;20.33;;;;;;;;;;5064622;28;20044;-63
2024/03/06 11:04:33;;;;;;;56.92;20.02;;;;;;;;;;5071084;28;20040;-63
2024/03/06 11:07:02;;;;;;;66.75;20.58;;;;;;;;;;5065415;28;20143;-63
2024/03/06 11:09:32;;;;;;;59.13;22.48;;;;;;;;;;5066918;28;20044;-62
2024/03/06 11:11:58;;;;;;;52.55;20.38;;;;;;;;;;5060404;28;20056;-65
2024/03/06 11:14:24;;;;;;;57.00;21.05;;;;;;;;;;5065934;28;20049;-62
2024/03/06 11:17:10;;;;;;;50.55;19.67;;;;;;;;;;5068011;28;20056;-62
2024/03/06 11:20:03;;;;;;;52.60;19.50;;;;;;;;;;5068932;28;20056;-62
2024/03/06 11:22:57;;;;;;;55.58;19.92;;;;;;;;;;5051718;28;20058;-62
2024/03/06 11:25:45;;;;;;;63.50;22.65;;;;;;;;;;5064868;28;20438;-63
2024/03/06 11:28:17;;;;;;;64.22;22.25;;;;;;;;;;5067935;28;20043;-64
2024/03/06 11:30:55;;;;;;;52.83;20.23;;;;;;;;;;5059909;28;20036;-62
2024/03/06 11:33:21;;;;;;;54.13;18.08;;;;;;;;;;5068375;28;20062;-63
2024/03/06 11:36:28;;;;;;;45.80;17.50;;;;;;;;;;5054110;28;20040;-63
2024/03/06 11:39:00;;;;;;;52.55;18.42;;;;;;;;;;5066689;28;20039;-62
2024/03/06 11:41:27;;;;;;;48.67;18.30;;;;;;;;;;5062193;28;20040;-62
2024/03/06 11:43:55;;;;;;;49.38;19.25;;;;;;;;;;5064548;28;20029;-62
2024/03/06 11:46:23;;;;;;;42.13;17.27;;;;;;;;;;5067625;28;20048;-62
2024/03/06 11:48:56;;;;;;;45.28;17.33;;;;;;;;;;5065918;28;20062;-63
2024/03/06 11:51:23;;;;;;;44.10;17.20;;;;;;;;;;5063201;28;20056;-62
2024/03/06 11:53:53;;;;;;;38.70;16.77;;;;;;;;;;5086773;28;20040;-62
2024/03/06 11:56:20;;;;;;;47.13;17.67;;;;;;;;;;5061484;28;20426;-62
2024/03/06 11:58:47;;;;;;;46.55;19.17;;;;;;;;;;5063036;28;20051;-61
2024/03/06 12:01:14;;;;;;;49.17;18.05;;;;;;;;;;5068794;28;20129;-62
2024/03/06 12:03:42;;;;;;;37.50;16.08;;;;;;;;;;5070653;28;20501;-64
2024/03/06 12:06:08;;;;;;;44.28;16.20;;;;;;;;;;5065719;28;20045;-62
2024/03/06 12:08:37;;;;;;;36.67;16.40;;;;;;;;;;5059356;28;20037;-62
2024/03/06 12:11:07;;;;;;;39.78;14.98;;;;;;;;;;5067188;28;20036;-62
2024/03/06 12:13:34;;;;;;;40.95;15.93;;;;;;;;;;5061112;28;20548;-62
2024/03/06 12:16:06;;;;;;;38.95;15.30;;;;;;;;;;5068129;28;20059;-62
2024/03/06 12:18:33;;;;;;;35.45;15.18;;;;;;;;;;5062337;28;20045;-63
2024/03/06 12:21:04;;;;;;;35.25;15.32;;;;;;;;;;5057269;28;20040;-63
2024/03/06 12:23:30;;;;;;;37.97;15.90;;;;;;;;;;5069626;28;20425;-62
2024/03/06 12:26:10;;;;;;;31.30;14.13;;;;;;;;;;5071771;28;20044;-63
2024/03/06 12:28:38;;;;;;;33.08;15.45;;;;;;;;;;5063193;28;20043;-63
2024/03/06 12:31:05;;;;;;;30.63;15.52;;;;;;;;;;5057713;28;20639;-62
2024/03/06 12:33:33;;;;;;;31.10;14.65;;;;;;;;;;5056573;28;20053;-63
2024/03/06 12:36:04;;;;;;;35.73;14.87;;;;;;;;;;5066338;28;20052;-62
2024/03/06 12:38:31;;;;;;;31.75;14.70;;;;;;;;;;5054521;28;20037;-63
2024/03/06 12:40:58;;;;;;;30.73;14.32;;;;;;;;;;5052643;28;20494;-63
2024/03/06 12:43:25;;;;;;;32.60;14.80;;;;;;;;;;5062913;28;20033;-62
2024/03/06 12:45:54;;;;;;;32.17;14.68;;;;;;;;;;5063503;28;20037;-62
2024/03/06 12:48:21;;;;;;;33.10;14.38;;;;;;;;;;5058417;28;20043;-62
2024/03/06 12:50:51;;;;;;;30.88;13.77;;;;;;;;;;5067624;28;20048;-63
2024/03/06 12:53:18;;;;;;;;;;;;;;;;;;5063914;28;20051;-63
2024/03/06 12:55:45;;;;;;;28.13;12.73;;;;;;;;;;5059163;28;19912;-63
2024/03/06 12:58:12;;;;;;;26.92;13.82;;;;;;;;;;5065688;28;20032;-63
2024/03/06 13:00:38;;;;;;;29.25;14.85;;;;;;;;;;5060552;28;20409;-64
2024/03/06 13:03:05;;;;;;;31.35;14.48;;;;;;;;;;5060433;28;20051;-63
2024/03/06 13:05:31;;;;;;;27.52;13.80;;;;;;;;;;5058868;28;20504;-63
2024/03/06 13:07:59;;;;;;;29.00;14.15;;;;;;;;;;5068546;28;20025;-63
2024/03/06 13:10:25;;;;;;;30.23;14.05;;;;;;;;;;5067580;28;20051;-65
2024/03/06 13:12:52;;;;;;;32.28;15.80;;;;;;;;;;5061181;28;20063;-63
2024/03/06 13:15:18;;;;;;;36.97;16.90;;;;;;;;;;5058987;28;20051;-64
2024/03/06 13:17:44;;;;;;;34.03;15.93;;;;;;;;;;5060505;28;20040;-64
2024/03/06 13:20:13;;;;;;;36.47;16.45;;;;;;;;;;5064328;28;20501;-64
2024/03/06 13:22:40;;;;;;;33.92;15.05;;;;;;;;;;5068123;28;20045;-65
2024/03/06 13:25:06;;;;;;;28.50;14.40;;;;;;;;;;5064170;28;20425;-64
2024/03/06 13:27:32;;;;;;;35.30;16.35;;;;;;;;;;5066103;28;20340;-64
2024/03/06 13:29:58;;;;;;;38.60;18.65;;;;;;;;;;5066809;28;20049;-64
2024/03/06 13:32:25;;;;;;;38.88;19.52;;;;;;;;;;5059005;28;20685;-64
2024/03/06 13:34:51;;;;;;;41.67;19.63;;;;;;;;;;5057371;28;20037;-63
2024/03/06 13:37:17;;;;;;;39.22;18.65;;;;;;;;;;5067617;28;20044;-63
2024/03/06 13:39:43;;;;;;;34.67;16.40;;;;;;;;;;5067087;28;20756;-62
2024/03/06 13:42:09;;;;;;;31.00;15.70;;;;;;;;;;5060580;28;20043;-63
2024/03/06 13:44:36;;;;;;;31.60;15.32;;;;;;;;;;5060467;28;20056;-62
2024/03/06 13:47:03;;;;;;;33.63;16.05;;;;;;;;;;5063972;28;20056;-62
2024/03/06 13:49:38;;;;;;;33.35;15.90;;;;;;;;;;5064028;28;20047;-62
2024/03/06 13:52:05;;;;;;;36.40;17.33;;;;;;;;;;5060207;28;20029;-64
2024/03/06 13:54:31;;;;;;;30.48;15.27;;;;;;;;;;5060781;28;20568;-64
2024/03/06 13:57:01;;;;;;;34.50;17.98;;;;;;;;;;5062449;28;20051;-65
2024/03/06 13:59:31;;;;;;;31.80;16.33;;;;;;;;;;5061051;28;20064;-65
2024/03/06 14:01:58;;;;;;;32.55;17.70;;;;;;;;;;5066165;28;20048;-63
2024/03/06 14:04:25;;;;;;;32.58;16.77;;;;;;;;;;5060955;28;20051;-65
2024/03/06 14:06:51;;;;;;;35.72;18.10;;;;;;;;;;5067514;28;20051;-64
2024/03/06 14:09:17;;;;;;;34.88;17.65;;;;;;;;;;5060970;28;20052;-64
2024/03/06 14:11:44;;;;;;;33.65;17.48;;;;;;;;;;5059377;28;20497;-64
2024/03/06 14:14:13;;;;;;;31.95;17.15;;;;;;;;;;5054478;28;20147;-64
2024/03/06 14:16:40;;;;;;;29.92;15.77;;;;;;;;;;5063519;28;20028;-63
2024/03/06 14:19:06;;;;;;;30.38;15.93;;;;;;;;;;5063015;28;20039;-63
2024/03/06 14:21:32;;;;;;;29.98;15.85;;;;;;;;;;5060828;28;20037;-64